Time;durP1;ratioP1;P1;durP2;ratioP2;P2;SDS_P1;SDS_P2;PMS_P1;PMS_P2;Temp;Humidity;BMP_temperature;BMP_pressure;BME280_temperature;BME280_humidity;BME280_pressure;Samples;Min_cycle;Max_cycle;Signal;HPM_P1;HPM_P2
2021/10/04 00:01:06;;;;;;;1.20;1.20;;;;;;;15.22;81.01;96657.56;5073446;28;20642;-68
2021/10/04 00:03:32;;;;;;;1.00;1.00;;;;;;;15.27;81.03;96662.84;5073123;28;20664;-68
2021/10/04 00:05:57;;;;;;;1.10;1.10;;;;;;;15.25;80.70;96662.34;5073423;28;20268;-68
2021/10/04 00:08:22;;;;;;;1.00;1.00;;;;;;;15.27;80.91;96667.34;5072831;28;20181;-68
2021/10/04 00:10:49;;;;;;;1.00;1.00;;;;;;;15.30;80.87;96651.78;5072685;28;20307;-68
2021/10/04 00:13:15;;;;;;;1.00;1.00;;;;;;;15.15;81.36;96646.47;5072337;28;20182;-68
2021/10/04 00:15:40;;;;;;;1.13;1.10;;;;;;;15.28;80.28;96661.81;5054411;28;20196;-67
2021/10/04 00:18:06;;;;;;;0.90;0.90;;;;;;;15.27;80.60;96657.56;5072708;28;20189;-68
2021/10/04 00:20:31;;;;;;;1.00;1.00;;;;;;;15.25;81.25;96641.22;5054793;28;20653;-68
2021/10/04 00:22:59;;;;;;;1.00;1.00;;;;;;;15.21;81.12;96661.25;5073177;28;20213;-67
2021/10/04 00:25:24;;;;;;;1.10;1.00;;;;;;;15.17;79.51;96654.91;5072714;28;20614;-68
2021/10/04 00:27:50;;;;;;;0.97;0.97;;;;;;;15.11;79.82;96663.06;5072464;28;20216;-68
2021/10/04 00:30:16;;;;;;;1.20;1.10;;;;;;;15.09;79.51;96658.06;5072417;28;20224;-68
2021/10/04 00:32:45;;;;;;;1.00;1.00;;;;;;;15.07;79.52;96659.34;5054915;28;20629;-68
2021/10/04 00:35:13;;;;;;;1.00;1.00;;;;;;;15.15;79.44;96661.50;5072368;28;20181;-68
2021/10/04 00:37:39;;;;;;;1.10;1.10;;;;;;;14.96;80.06;96659.31;5072499;28;20209;-68
2021/10/04 00:40:08;;;;;;;0.93;0.93;;;;;;;14.98;80.84;96656.41;5072944;28;20263;-68
2021/10/04 00:42:34;;;;;;;1.40;1.30;;;;;;;15.19;79.56;96657.28;5072732;28;20197;-68
2021/10/04 00:44:59;;;;;;;1.13;1.10;;;;;;;15.22;79.07;96664.69;5072534;28;20268;-68
2021/10/04 00:47:24;;;;;;;1.00;1.00;;;;;;;15.10;79.49;96658.84;5072724;28;20219;-68
2021/10/04 00:49:50;;;;;;;1.20;1.20;;;;;;;15.06;79.65;96668.31;5072279;28;20639;-68
2021/10/04 00:52:15;;;;;;;1.30;1.20;;;;;;;14.64;82.03;96665.72;5054777;28;20182;-68
2021/10/04 00:54:41;;;;;;;1.70;1.40;;;;;;;14.60;83.03;96664.66;5054663;28;20185;-67
2021/10/04 00:57:06;;;;;;;1.30;1.30;;;;;;;14.57;83.70;96664.13;5072218;28;20684;-68
2021/10/04 00:59:33;;;;;;;1.47;1.47;;;;;;;14.35;85.20;96676.59;5072302;28;20189;-68
2021/10/04 01:01:58;;;;;;;1.60;1.50;;;;;;;14.24;86.66;96676.75;5072374;28;20256;-68
2021/10/04 01:04:27;;;;;;;1.60;1.57;;;;;;;14.19;87.01;96671.44;5072346;28;20729;-68
2021/10/04 01:06:57;;;;;;;1.50;1.40;;;;;;;14.17;87.52;96679.59;5072261;28;20185;-67
2021/10/04 01:09:23;;;;;;;1.30;1.30;;;;;;;14.28;87.41;96681.28;5072457;28;20280;-68
2021/10/04 01:11:50;;;;;;;1.30;1.30;;;;;;;14.07;88.70;96664.50;5072026;28;20182;-68
2021/10/04 01:14:15;;;;;;;1.67;1.57;;;;;;;14.25;88.08;96655.44;5053637;28;20201;-68
2021/10/04 01:16:41;;;;;;;1.60;1.50;;;;;;;14.25;88.49;96658.06;5072011;28;20300;-67
2021/10/04 01:19:06;;;;;;;3.30;1.63;;;;;;;14.48;88.02;96662.22;5072014;28;20185;-67
2021/10/04 01:21:31;;;;;;;1.37;1.37;;;;;;;14.54;87.34;96658.56;5072165;28;20255;-68
2021/10/04 01:23:57;;;;;;;1.40;1.40;;;;;;;14.37;87.42;96656.06;5072170;28;20188;-67
2021/10/04 01:26:24;;;;;;;2.00;1.37;;;;;;;14.37;87.69;96669.25;5072325;28;20645;-68
2021/10/04 01:28:50;;;;;;;1.40;1.40;;;;;;;14.39;87.53;96667.16;5072233;28;20645;-68
2021/10/04 01:31:21;;;;;;;1.37;1.30;;;;;;;14.64;86.34;96663.91;5072656;28;20188;-68
2021/10/04 01:33:47;;;;;;;1.40;1.33;;;;;;;14.39;86.63;96666.34;5072192;28;20169;-68
2021/10/04 01:36:12;;;;;;;1.33;1.30;;;;;;;14.43;86.48;96664.81;5073890;28;20201;-68
2021/10/04 01:38:38;;;;;;;1.23;1.23;;;;;;;14.51;85.84;96672.25;5076421;28;20185;-68
2021/10/04 01:41:03;;;;;;;1.40;1.40;;;;;;;14.51;85.68;96683.59;5057848;28;20181;-66
2021/10/04 01:43:29;;;;;;;1.60;1.50;;;;;;;14.43;86.00;96686.69;5041490;28;20197;-67
2021/10/04 01:45:54;;;;;;;1.20;1.20;;;;;;;14.57;85.28;96682.56;5075691;28;20265;-68
2021/10/04 01:48:20;;;;;;;1.20;1.20;;;;;;;14.55;85.73;96691.78;5075780;28;20691;-67
2021/10/04 01:50:45;;;;;;;1.13;1.13;;;;;;;14.56;85.22;96694.16;5075802;28;20185;-67
2021/10/04 01:53:11;;;;;;;1.20;1.20;;;;;;;14.36;86.09;96687.94;5058018;28;20272;-68
2021/10/04 01:55:36;;;;;;;1.37;1.37;;;;;;;14.51;85.38;96696.78;5075635;28;20186;-68
2021/10/04 01:58:02;;;;;;;1.03;1.03;;;;;;;14.26;85.58;96698.41;5075564;28;20193;-67
2021/10/04 02:00:28;;;;;;;1.50;1.40;;;;;;;14.25;85.96;96696.81;5058046;28;20189;-68
2021/10/04 02:02:56;;;;;;;1.23;1.23;;;;;;;14.19;85.76;96703.09;5074966;28;20645;-68
2021/10/04 02:05:21;;;;;;;1.20;1.20;;;;;;;14.32;86.04;96702.69;5072786;28;20181;-68
2021/10/04 02:07:49;;;;;;;1.23;1.23;;;;;;;14.21;84.77;96698.38;5057205;28;20189;-68
2021/10/04 02:10:18;;;;;;;1.40;1.40;;;;;;;14.09;86.06;96699.31;5075198;28;20220;-68
2021/10/04 02:12:45;;;;;;;1.50;1.40;;;;;;;14.00;86.29;96710.56;5075601;28;20268;-68
2021/10/04 02:15:11;;;;;;;1.63;1.53;;;;;;;13.87;86.66;96711.78;5074535;28;20173;-68
2021/10/04 02:17:38;;;;;;;1.37;1.20;;;;;;;13.80;88.04;96716.44;5075246;28;20200;-68
2021/10/04 02:20:07;;;;;;;1.40;1.40;;;;;;;13.85;86.98;96713.06;5075488;28;20262;-68
2021/10/04 02:22:32;;;;;;;1.40;1.40;;;;;;;13.80;85.94;96703.25;5057537;28;20223;-68
2021/10/04 02:24:58;;;;;;;1.50;1.40;;;;;;;13.85;86.00;96718.31;5057171;28;20208;-69
2021/10/04 02:27:23;;;;;;;1.23;1.20;;;;;;;13.99;85.61;96709.75;5075381;28;20181;-68
2021/10/04 02:29:49;;;;;;;1.27;1.27;;;;;;;14.03;86.29;96713.50;5075041;28;20552;-68
2021/10/04 02:32:14;;;;;;;1.37;1.27;;;;;;;14.12;86.11;96708.56;5074915;28;20259;-69
2021/10/04 02:34:40;;;;;;;1.33;1.23;;;;;;;14.05;86.65;96697.41;5056947;28;20182;-68
2021/10/04 02:37:05;;;;;;;1.63;1.53;;;;;;;13.86;87.38;96702.28;5075147;28;20250;-68
2021/10/04 02:39:30;;;;;;;1.47;1.37;;;;;;;13.83;87.67;96701.94;5075190;28;20261;-68
2021/10/04 02:41:56;;;;;;;1.20;1.20;;;;;;;13.49;88.93;96688.97;5074885;28;20228;-68
2021/10/04 02:44:21;;;;;;;1.47;1.40;;;;;;;13.57;88.39;96683.28;5056870;28;20235;-68
2021/10/04 02:46:46;;;;;;;1.70;1.60;;;;;;;13.39;89.90;96688.88;5074631;28;20193;-68
2021/10/04 02:49:12;;;;;;;1.50;1.50;;;;;;;13.11;91.82;96708.25;5074396;28;20634;-68
2021/10/04 02:51:38;;;;;;;1.80;1.80;;;;;;;13.10;93.01;96719.78;5074677;28;20185;-68
2021/10/04 02:54:03;;;;;;;1.80;1.70;;;;;;;13.05;94.09;96716.31;5057078;28;20268;-68
2021/10/04 02:56:29;;;;;;;2.40;2.20;;;;;;;13.16;94.56;96715.44;5074174;28;20223;-68
2021/10/04 02:58:54;;;;;;;2.40;2.20;;;;;;;13.18;95.43;96701.00;5056561;28;20176;-67
2021/10/04 03:01:20;;;;;;;2.50;2.30;;;;;;;13.30;94.70;96699.03;5074381;28;20576;-68
2021/10/04 03:03:45;;;;;;;2.50;2.40;;;;;;;13.40;92.19;96701.00;5074686;28;20626;-67
2021/10/04 03:06:10;;;;;;;2.20;2.10;;;;;;;13.12;93.44;96694.06;5074390;28;20182;-68
2021/10/04 03:08:36;;;;;;;2.10;2.10;;;;;;;13.18;94.98;96690.47;5056481;28;20555;-67
2021/10/04 03:11:02;;;;;;;2.27;2.20;;;;;;;13.21;94.93;96702.31;5073486;28;20296;-68
2021/10/04 03:13:27;;;;;;;2.27;2.17;;;;;;;13.09;96.34;96714.81;5073468;28;20646;-67
2021/10/04 03:15:53;;;;;;;1.60;1.60;;;;;;;13.38;94.80;96712.78;5073971;28;20192;-68
2021/10/04 03:18:19;;;;;;;1.80;1.80;;;;;;;13.23;95.55;96710.78;5074247;28;20282;-68
2021/10/04 03:20:44;;;;;;;1.90;1.90;;;;;;;13.17;96.34;96714.38;5073892;28;20200;-67
2021/10/04 03:23:09;;;;;;;1.80;1.70;;;;;;;12.98;96.79;96711.25;5056692;28;20182;-67
2021/10/04 03:25:35;;;;;;;1.47;1.47;;;;;;;13.15;96.91;96722.53;5074176;28;20190;-67
2021/10/04 03:28:01;;;;;;;1.70;1.60;;;;;;;13.19;96.86;96728.13;5056206;28;20177;-67
2021/10/04 03:30:26;;;;;;;1.33;1.33;;;;;;;13.33;96.39;96718.78;5073807;28;20177;-67
2021/10/04 03:32:52;;;;;;;1.50;1.50;;;;;;;13.18;97.53;96721.25;5073865;28;20197;-68
2021/10/04 03:35:18;;;;;;;1.40;1.40;;;;;;;13.22;97.47;96730.25;5073311;28;20222;-68
2021/10/04 03:37:44;;;;;;;1.70;1.60;;;;;;;13.19;98.36;96728.13;5073910;28;20236;-67
2021/10/04 03:40:10;;;;;;;1.33;1.33;;;;;;;13.24;98.27;96731.59;5055453;28;20216;-68
2021/10/04 03:42:36;;;;;;;1.40;1.40;;;;;;;13.19;98.66;96731.53;5073465;28;20269;-68
2021/10/04 03:45:03;;;;;;;1.83;1.77;;;;;;;13.32;97.39;96733.00;5073418;28;20181;-67
2021/10/04 03:47:28;;;;;;;1.37;1.37;;;;;;;13.22;99.00;96738.13;5055603;28;20209;-68
2021/10/04 03:49:53;;;;;;;1.60;1.50;;;;;;;13.18;99.10;96739.69;5074118;28;20212;-67
2021/10/04 03:52:19;;;;;;;1.87;1.67;;;;;;;13.22;98.51;96740.78;5073505;28;20276;-67
2021/10/04 03:54:44;;;;;;;1.63;1.53;;;;;;;13.15;99.60;96743.56;5073348;28;20173;-68
2021/10/04 03:57:10;;;;;;;1.57;1.47;;;;;;;13.14;99.25;96746.47;5072773;28;20196;-68
2021/10/04 03:59:35;;;;;;;1.60;1.60;;;;;;;13.22;98.67;96746.03;5072378;28;20181;-67
2021/10/04 04:02:01;;;;;;;2.10;2.00;;;;;;;13.13;98.94;96742.25;5055832;28;20181;-67
2021/10/04 04:04:26;;;;;;;1.90;1.80;;;;;;;13.14;100.00;96749.09;5072947;28;20181;-67
2021/10/04 04:06:52;;;;;;;1.43;1.43;;;;;;;13.20;100.00;96750.75;5072801;28;20265;-67
2021/10/04 04:09:17;;;;;;;1.77;1.77;;;;;;;13.19;99.39;96751.81;5072754;28;20276;-67
2021/10/04 04:11:43;;;;;;;2.00;1.90;;;;;;;13.16;97.67;96747.00;5072861;28;20216;-67
2021/10/04 04:14:08;;;;;;;1.83;1.70;;;;;;;13.01;99.93;96741.53;5054854;28;20177;-67
2021/10/04 04:16:34;;;;;;;1.40;1.30;;;;;;;12.94;100.00;96739.06;5072809;28;20239;-68
2021/10/04 04:18:59;;;;;;;1.30;1.20;;;;;;;13.08;99.19;96752.69;5073479;28;20181;-67
2021/10/04 04:21:25;;;;;;;1.50;1.50;;;;;;;12.95;100.00;96758.28;5072219;28;20302;-68
2021/10/04 04:23:50;;;;;;;1.43;1.40;;;;;;;12.98;100.00;96760.44;5072972;28;20540;-68
2021/10/04 04:26:15;;;;;;;1.33;1.30;;;;;;;12.90;100.00;96772.94;5072726;28;20269;-68
2021/10/04 04:28:41;;;;;;;1.33;1.33;;;;;;;12.91;100.00;96782.44;5072734;28;20610;-68
2021/10/04 04:31:06;;;;;;;1.63;1.50;;;;;;;12.91;100.00;96773.75;5072334;28;20213;-68
2021/10/04 04:33:32;;;;;;;1.10;1.10;;;;;;;13.01;100.00;96775.72;5073478;28;20188;-68
2021/10/04 04:35:57;;;;;;;1.30;1.30;;;;;;;12.91;99.84;96771.13;5054712;28;20182;-68
2021/10/04 04:38:23;;;;;;;1.63;1.10;;;;;;;12.92;99.60;96759.56;5072609;28;20267;-68
2021/10/04 04:40:48;;;;;;;1.87;1.00;;;;;;;12.85;100.00;96759.72;5072311;28;20193;-68
2021/10/04 04:43:14;;;;;;;1.20;1.20;;;;;;;12.94;100.00;96760.09;5054146;28;20262;-68
2021/10/04 04:45:39;;;;;;;1.07;1.00;;;;;;;12.93;100.00;96769.03;5072300;28;20669;-68
2021/10/04 04:48:05;;;;;;;1.33;1.33;;;;;;;12.93;100.00;96776.91;5072836;28;20181;-68
2021/10/04 04:50:30;;;;;;;1.07;1.07;;;;;;;12.85;100.00;96772.09;5055017;28;20173;-68
2021/10/04 04:52:56;;;;;;;1.17;1.17;;;;;;;12.78;100.00;96766.97;5072245;28;20707;-68
2021/10/04 04:55:21;;;;;;;1.00;1.00;;;;;;;12.67;100.00;96770.50;5072984;28;20248;-68
2021/10/04 04:57:47;;;;;;;1.20;1.20;;;;;;;12.48;100.00;96777.81;5072428;28;20205;-68
2021/10/04 05:00:14;;;;;;;1.30;1.20;;;;;;;12.47;100.00;96781.50;5071905;28;20231;-68
2021/10/04 05:02:44;;;;;;;2.07;1.50;;;;;;;12.38;100.00;96782.91;5072406;28;20273;-68
2021/10/04 05:05:12;;;;;;;1.30;1.30;;;;;;;12.53;100.00;96797.34;5048743;28;20169;-68
2021/10/04 05:07:38;;;;;;;1.07;1.07;;;;;;;12.65;100.00;96801.47;5071192;28;20189;-69
2021/10/04 05:10:05;;;;;;;1.20;1.20;;;;;;;12.59;100.00;96799.84;5054708;28;20221;-69
2021/10/04 05:12:31;;;;;;;1.60;1.50;;;;;;;12.73;100.00;96797.66;5078138;28;20213;-68
2021/10/04 05:14:56;;;;;;;1.77;1.67;;;;;;;12.59;100.00;96805.09;5078994;28;20232;-68
2021/10/04 05:17:22;;;;;;;2.10;1.60;;;;;;;12.61;100.00;96805.63;5078532;28;20242;-68
2021/10/04 05:19:47;;;;;;;1.43;1.43;;;;;;;12.63;100.00;96798.31;5078835;28;20671;-68
2021/10/04 05:22:12;;;;;;;1.30;1.30;;;;;;;12.68;100.00;96797.59;5078903;28;20298;-68
2021/10/04 05:24:38;;;;;;;1.60;1.50;;;;;;;12.65;100.00;96792.81;5079367;28;20185;-68
2021/10/04 05:27:03;;;;;;;1.60;1.53;;;;;;;12.68;100.00;96808.09;5061120;28;20588;-67
2021/10/04 05:29:29;;;;;;;1.20;1.20;;;;;;;12.75;100.00;96812.19;5078800;28;20276;-67
2021/10/04 05:31:55;;;;;;;1.43;1.33;;;;;;;12.72;100.00;96815.28;5078971;28;20247;-67
2021/10/04 05:34:20;;;;;;;1.30;1.30;;;;;;;12.67;100.00;96825.72;5078604;28;20193;-67
2021/10/04 05:36:46;;;;;;;1.70;1.60;;;;;;;12.70;100.00;96833.16;5078596;28;20199;-67
2021/10/04 05:39:12;;;;;;;1.47;1.47;;;;;;;12.76;100.00;96840.06;5078833;28;20195;-68
2021/10/04 05:41:37;;;;;;;1.93;1.83;;;;;;;12.68;100.00;96840.47;5078853;28;20264;-67
2021/10/04 05:44:03;;;;;;;2.10;1.90;;;;;;;12.72;100.00;96844.22;5078951;28;20191;-67
2021/10/04 05:46:28;;;;;;;1.73;1.60;;;;;;;12.81;100.00;96855.16;5078638;28;20188;-67
2021/10/04 05:48:54;;;;;;;1.33;1.33;;;;;;;12.80;100.00;96850.91;5078669;28;20645;-68
2021/10/04 05:51:20;;;;;;;1.60;1.50;;;;;;;12.75;100.00;96858.72;5077355;28;20676;-68
2021/10/04 05:53:46;;;;;;;3.13;1.70;;;;;;;12.75;100.00;96853.47;5073656;28;20185;-67
2021/10/04 05:56:12;;;;;;;1.47;1.30;;;;;;;12.62;100.00;96859.03;5077854;28;20192;-68
2021/10/04 05:58:38;;;;;;;1.23;1.23;;;;;;;12.59;100.00;96854.25;5058214;28;20185;-67
2021/10/04 06:01:04;;;;;;;1.30;1.20;;;;;;;12.61;100.00;96855.59;5078061;28;20184;-67
2021/10/04 06:03:30;;;;;;;1.83;1.43;;;;;;;12.74;100.00;96855.28;5078236;28;20663;-67
2021/10/04 06:05:55;;;;;;;1.30;1.30;;;;;;;12.66;100.00;96863.56;5078000;28;20562;-67
2021/10/04 06:08:21;;;;;;;1.40;1.30;;;;;;;12.71;100.00;96850.50;5078130;28;20559;-67
2021/10/04 06:10:46;;;;;;;1.60;1.50;;;;;;;12.63;100.00;96858.78;5078218;28;20623;-67
2021/10/04 06:13:12;;;;;;;1.70;1.60;;;;;;;12.70;100.00;96861.28;5076356;28;20201;-68
2021/10/04 06:15:37;;;;;;;1.40;1.30;;;;;;;12.75;100.00;96864.78;5059098;28;20177;-69
2021/10/04 06:18:02;;;;;;;1.37;1.27;;;;;;;12.82;100.00;96860.16;5076730;28;20205;-69
2021/10/04 06:20:28;;;;;;;1.23;1.13;;;;;;;12.74;100.00;96852.66;5059235;28;20182;-69
2021/10/04 06:22:55;;;;;;;1.30;1.20;;;;;;;12.65;100.00;96861.97;5074345;28;20181;-69
2021/10/04 06:25:20;;;;;;;1.40;1.10;;;;;;;12.65;100.00;96859.34;5074222;28;20185;-69
2021/10/04 06:27:49;;;;;;;1.20;1.20;;;;;;;12.76;100.00;96858.47;5074117;28;20196;-69
2021/10/04 06:30:16;;;;;;;1.30;1.20;;;;;;;12.68;100.00;96864.13;5074541;28;20213;-69
2021/10/04 06:32:42;;;;;;;0.90;0.90;;;;;;;12.87;100.00;96868.13;5074585;28;20695;-69
2021/10/04 06:35:08;;;;;;;1.40;1.30;;;;;;;12.81;100.00;96860.41;5074876;28;20181;-68
2021/10/04 06:37:33;;;;;;;1.40;1.30;;;;;;;12.81;100.00;96857.78;5074144;28;20197;-68
2021/10/04 06:39:59;;;;;;;1.73;1.10;;;;;;;12.73;100.00;96855.53;5073084;28;20547;-68
2021/10/04 06:42:25;;;;;;;1.37;1.23;;;;;;;12.89;100.00;96867.88;5074331;28;20272;-68
2021/10/04 06:44:51;;;;;;;1.10;1.10;;;;;;;12.67;100.00;96875.69;5056418;28;20268;-69
2021/10/04 06:47:17;;;;;;;1.30;1.20;;;;;;;12.20;100.00;96883.00;5074214;28;20239;-66
2021/10/04 06:49:42;;;;;;;0.83;0.83;;;;;;;12.28;100.00;96897.56;5074308;28;20209;-66
2021/10/04 06:52:08;;;;;;;1.10;1.10;;;;;;;12.24;100.00;96902.50;5073820;28;20295;-66
2021/10/04 06:54:33;;;;;;;1.00;1.00;;;;;;;12.31;100.00;96907.63;5072046;28;20188;-66
2021/10/04 06:56:59;;;;;;;1.40;1.00;;;;;;;12.62;100.00;96909.78;5074094;28;20209;-66
2021/10/04 06:59:24;;;;;;;1.00;1.00;;;;;;;12.64;100.00;96904.28;5073675;28;20265;-66
2021/10/04 07:01:50;;;;;;;1.30;1.20;;;;;;;12.54;100.00;96910.16;5073178;28;20208;-66
2021/10/04 07:04:15;;;;;;;1.43;1.30;;;;;;;12.49;100.00;96918.75;5073423;28;20192;-66
2021/10/04 07:06:40;;;;;;;1.30;1.20;;;;;;;12.45;100.00;96933.41;5073853;28;20657;-66
2021/10/04 07:09:06;;;;;;;1.30;1.20;;;;;;;12.40;100.00;96935.94;5055800;28;20174;-66
2021/10/04 07:11:31;;;;;;;1.43;1.43;;;;;;;12.64;100.00;96933.22;5072706;28;20243;-66
2021/10/04 07:13:57;;;;;;;1.60;1.50;;;;;;;12.75;100.00;96935.00;5073454;28;20265;-69
2021/10/04 07:16:23;;;;;;;1.33;1.20;;;;;;;12.86;100.00;96937.56;5073378;28;20204;-69
2021/10/04 07:18:49;;;;;;;1.30;1.30;;;;;;;13.06;100.00;96936.31;5074037;28;20212;-69
2021/10/04 07:21:14;;;;;;;2.33;1.70;;;;;;;13.17;100.00;96949.44;5073555;28;20280;-69
2021/10/04 07:23:40;;;;;;;1.77;1.60;;;;;;;12.97;100.00;96951.69;5069586;28;20193;-68
2021/10/04 07:26:06;;;;;;;2.00;1.90;;;;;;;12.94;100.00;96946.91;5073233;28;20668;-69
2021/10/04 07:28:32;;;;;;;2.17;1.90;;;;;;;13.07;100.00;96949.22;5073398;28;20185;-68
2021/10/04 07:30:58;;;;;;;1.93;1.83;;;;;;;13.10;100.00;96961.91;5073301;28;20185;-69
2021/10/04 07:33:24;;;;;;;2.80;2.00;;;;;;;13.09;100.00;96965.59;5073149;28;20190;-69
2021/10/04 07:35:55;;;;;;;3.73;2.30;;;;;;;13.01;100.00;96965.97;5073147;28;20230;-69
2021/10/04 07:38:21;;;;;;;2.60;2.40;;;;;;;13.14;100.00;96960.44;5073334;28;20193;-68
2021/10/04 07:40:47;;;;;;;3.03;2.60;;;;;;;13.07;100.00;96958.97;5073712;28;20263;-69
2021/10/04 07:43:12;;;;;;;5.50;3.30;;;;;;;12.82;100.00;96954.84;5073207;28;20756;-69
2021/10/04 07:45:38;;;;;;;3.37;2.90;;;;;;;12.79;100.00;96960.59;5072387;28;20625;-69
2021/10/04 07:48:03;;;;;;;2.70;2.50;;;;;;;12.88;100.00;96974.94;5055326;28;20234;-69
2021/10/04 07:50:29;;;;;;;3.17;2.87;;;;;;;12.93;100.00;96991.88;5073441;28;20185;-69
2021/10/04 07:52:54;;;;;;;3.00;2.80;;;;;;;12.96;100.00;96994.81;5073044;28;20192;-69
2021/10/04 07:55:22;;;;;;;2.80;2.60;;;;;;;12.56;100.00;96994.06;5072338;28;20282;-69
2021/10/04 07:57:48;;;;;;;4.37;2.97;;;;;;;12.62;100.00;96998.38;5055361;28;20212;-69
2021/10/04 08:00:16;;;;;;;2.70;2.50;;;;;;;12.79;100.00;97000.03;5072583;28;20193;-69
2021/10/04 08:02:41;;;;;;;3.03;2.77;;;;;;;12.76;100.00;97015.50;5073009;28;20208;-69
2021/10/04 08:05:07;;;;;;;3.00;2.73;;;;;;;12.75;100.00;97011.28;5072765;28;20209;-69
2021/10/04 08:07:33;;;;;;;3.33;2.53;;;;;;;12.85;100.00;97017.53;5072908;28;20672;-69
2021/10/04 08:09:59;;;;;;;3.50;3.00;;;;;;;12.97;100.00;97019.31;5054211;28;20660;-68
2021/10/04 08:12:27;;;;;;;3.17;2.87;;;;;;;12.72;100.00;97007.25;5071948;28;20216;-69
2021/10/04 08:14:54;;;;;;;3.90;3.50;;;;;;;12.31;100.00;97002.25;5073403;28;20216;-69
2021/10/04 08:17:19;;;;;;;4.57;4.17;;;;;;;11.96;100.00;97000.47;5072724;28;20213;-69
2021/10/04 08:19:45;;;;;;;4.63;4.23;;;;;;;12.01;100.00;97005.84;5072016;28;20272;-69
2021/10/04 08:22:11;;;;;;;5.23;4.37;;;;;;;11.80;100.00;97003.78;5054324;28;20219;-69
2021/10/04 08:24:36;;;;;;;4.73;3.97;;;;;;;11.78;100.00;97010.28;5071624;28;20243;-69
2021/10/04 08:27:02;;;;;;;4.13;3.73;;;;;;;12.03;100.00;97014.28;5072138;28;20656;-69
2021/10/04 08:29:27;;;;;;;3.63;3.33;;;;;;;12.14;100.00;97022.38;5072565;28;20192;-69
2021/10/04 08:31:53;;;;;;;3.60;3.30;;;;;;;12.23;100.00;97027.06;5071838;28;20184;-69
2021/10/04 08:34:18;;;;;;;3.47;3.17;;;;;;;12.56;100.00;97031.66;5071827;28;20189;-68
2021/10/04 08:36:44;;;;;;;4.93;3.03;;;;;;;12.46;100.00;97031.47;5054261;28;20201;-69
2021/10/04 08:39:09;;;;;;;3.97;3.67;;;;;;;12.48;100.00;97035.44;5071931;28;20565;-69
2021/10/04 08:41:37;;;;;;;3.63;3.33;;;;;;;12.48;100.00;97032.06;5072267;28;20181;-69
2021/10/04 08:44:09;;;;;;;3.67;3.37;;;;;;;12.12;100.00;97027.06;5072416;28;20208;-69
2021/10/04 08:46:37;;;;;;;3.50;3.20;;;;;;;12.46;100.00;97029.66;5071620;28;20294;-69
2021/10/04 08:49:03;;;;;;;3.37;3.07;;;;;;;12.56;100.00;97044.81;5054339;28;20189;-69
2021/10/04 08:51:28;;;;;;;3.10;2.80;;;;;;;12.43;100.00;97047.69;5071994;28;20748;-69
2021/10/04 08:53:54;;;;;;;3.07;2.60;;;;;;;12.40;100.00;97056.84;5072392;28;20542;-69
2021/10/04 08:56:20;;;;;;;3.13;2.93;;;;;;;12.52;100.00;97051.59;5071226;28;20269;-69
2021/10/04 08:58:45;;;;;;;2.57;2.37;;;;;;;12.51;100.00;97042.09;5054641;28;20192;-69
2021/10/04 09:01:11;;;;;;;3.03;2.83;;;;;;;12.52;100.00;97042.91;5053008;28;20189;-69
2021/10/04 09:03:51;;;;;;;4.20;2.83;;;;;;;12.47;100.00;97035.72;5053872;28;20181;-69
2021/10/04 09:06:27;;;;;;;2.83;2.63;;;;;;;12.60;100.00;97043.31;5071725;28;20169;-69
2021/10/04 09:09:03;;;;;;;3.07;2.87;;;;;;;12.74;100.00;97046.50;5053275;28;20507;-69
2021/10/04 09:11:39;;;;;;;2.90;2.70;;;;;;;12.71;100.00;97041.69;5071506;28;20225;-69
2021/10/04 09:14:12;;;;;;;2.70;2.50;;;;;;;12.46;100.00;97040.16;5054221;28;20184;-69
2021/10/04 09:16:49;;;;;;;3.10;2.80;;;;;;;12.36;100.00;97042.59;5071610;28;20579;-69
2021/10/04 09:19:48;;;;;;;3.03;2.63;;;;;;;12.54;100.00;97052.13;5053512;28;20536;-69
2021/10/04 09:22:21;;;;;;;3.93;3.00;;;;;;;12.65;100.00;97047.91;5054227;28;20185;-69
2021/10/04 09:25:04;;;;;;;2.80;2.60;;;;;;;12.67;100.00;97058.97;5072008;28;20212;-69
2021/10/04 09:27:38;;;;;;;3.00;2.40;;;;;;;12.78;100.00;97050.25;5065229;28;20188;-69
2021/10/04 09:30:07;;;;;;;2.10;2.00;;;;;;;13.06;100.00;97060.78;5072067;28;20189;-69
2021/10/04 09:32:41;;;;;;;2.20;2.07;;;;;;;12.90;100.00;97053.63;5071722;28;20181;-69
2021/10/04 09:35:11;;;;;;;2.50;2.33;;;;;;;12.94;100.00;97060.03;5071933;28;20591;-71
2021/10/04 09:37:37;;;;;;;3.70;2.73;;;;;;;13.02;100.00;97059.66;5063610;28;20213;-69
2021/10/04 09:40:04;;;;;;;3.90;2.37;;;;;;;12.90;100.00;97064.16;5054086;28;20189;-69
2021/10/04 09:42:38;;;;;;;2.93;2.73;;;;;;;13.07;100.00;97074.75;5071551;28;20204;-69
2021/10/04 09:45:06;;;;;;;3.07;2.80;;;;;;;13.17;100.00;97070.50;5072271;28;20168;-69
2021/10/04 09:47:39;;;;;;;2.97;2.67;;;;;;;13.33;100.00;97068.94;5071474;28;20189;-69
2021/10/04 09:50:25;;;;;;;2.80;2.60;;;;;;;13.30;100.00;97064.16;5071988;28;20209;-69
2021/10/04 09:52:51;;;;;;;2.90;2.70;;;;;;;13.26;100.00;97063.81;5066753;28;20589;-69
2021/10/04 09:55:22;;;;;;;3.10;2.80;;;;;;;13.10;100.00;97066.38;5070891;28;20197;-69
2021/10/04 09:58:18;;;;;;;3.23;2.90;;;;;;;13.18;100.00;97058.94;5071482;28;20205;-69
2021/10/04 10:01:00;;;;;;;2.70;2.50;;;;;;;13.16;100.00;97058.38;5072399;28;20180;-69
2021/10/04 10:03:28;;;;;;;2.47;2.30;;;;;;;13.07;100.00;97058.97;5075182;28;20256;-69
2021/10/04 10:06:00;;;;;;;2.90;2.70;;;;;;;13.16;100.00;97070.72;5057210;28;20173;-69
2021/10/04 10:08:27;;;;;;;2.83;2.40;;;;;;;13.23;100.00;97069.56;5057144;28;20270;-69
2021/10/04 10:10:56;;;;;;;2.40;2.27;;;;;;;13.30;100.00;97058.88;5074502;28;20228;-69
2021/10/04 10:13:23;;;;;;;2.00;1.90;;;;;;;13.41;100.00;97062.50;5075168;28;20189;-69
2021/10/04 10:16:09;;;;;;;1.73;1.63;;;;;;;13.30;100.00;97051.78;5075377;28;20185;-69
2021/10/04 10:18:41;;;;;;;1.90;1.80;;;;;;;13.44;100.00;97064.63;5075299;28;20701;-69
2021/10/04 10:21:09;;;;;;;1.90;1.80;;;;;;;13.56;100.00;97052.22;5075456;28;20268;-70
2021/10/04 10:23:50;;;;;;;1.80;1.70;;;;;;;13.81;100.00;97060.53;5057577;28;20192;-69
2021/10/04 10:26:29;;;;;;;2.00;1.90;;;;;;;13.76;100.00;97055.19;5056751;28;20455;-69
2021/10/04 10:29:19;;;;;;;2.30;1.70;;;;;;;13.65;100.00;97048.16;5075073;28;20188;-70
2021/10/04 10:31:51;;;;;;;2.73;1.60;;;;;;;13.54;100.00;97047.16;5068652;28;20195;-70
2021/10/04 10:34:42;;;;;;;1.80;1.60;;;;;;;13.39;100.00;97046.91;5075161;28;20247;-70
2021/10/04 10:37:25;;;;;;;1.50;1.40;;;;;;;13.38;100.00;97040.06;5068171;28;20193;-70
2021/10/04 10:39:53;;;;;;;2.37;2.17;;;;;;;13.35;100.00;97032.66;5074947;28;20288;-69
2021/10/04 10:42:34;;;;;;;2.70;2.50;;;;;;;13.31;100.00;97034.97;5074909;28;20534;-70
2021/10/04 10:45:00;;;;;;;3.20;2.90;;;;;;;13.31;100.00;97039.44;5074914;28;20181;-70
2021/10/04 10:47:34;;;;;;;3.33;2.83;;;;;;;13.41;100.00;97044.06;5073770;28;20289;-70
2021/10/04 10:50:12;;;;;;;2.23;2.03;;;;;;;13.37;100.00;97046.38;5074597;28;20176;-69
2021/10/04 10:52:47;;;;;;;2.70;2.07;;;;;;;13.16;100.00;97047.03;5072677;28;20177;-70
2021/10/04 10:55:18;;;;;;;1.80;1.70;;;;;;;13.24;100.00;97042.19;5074225;28;20899;-70
2021/10/04 10:57:56;;;;;;;1.50;1.40;;;;;;;13.26;100.00;97036.72;5056135;28;20661;-70
2021/10/04 11:00:31;;;;;;;1.70;1.60;;;;;;;13.33;100.00;97032.06;5074490;28;20184;-70
2021/10/04 11:03:04;;;;;;;1.53;1.50;;;;;;;13.32;100.00;97033.91;5073748;28;20182;-69
2021/10/04 11:05:38;;;;;;;1.70;1.60;;;;;;;13.28;100.00;97032.00;5072066;28;20169;-69
2021/10/04 11:08:14;;;;;;;1.90;1.80;;;;;;;13.32;100.00;97041.00;5073549;28;20187;-70
2021/10/04 11:10:51;;;;;;;1.90;1.73;;;;;;;13.53;100.00;97044.78;5073533;28;20228;-71
2021/10/04 11:13:37;;;;;;;1.63;1.53;;;;;;;13.84;100.00;97044.22;5069155;28;20608;-70
2021/10/04 11:16:05;;;;;;;1.57;1.33;;;;;;;13.95;100.00;97045.97;5058606;28;20181;-70
2021/10/04 11:18:43;;;;;;;1.67;1.57;;;;;;;13.85;99.78;97051.09;5055502;28;20261;-70
2021/10/04 11:21:11;;;;;;;1.60;1.50;;;;;;;13.76;100.00;97046.47;5074090;28;20186;-70
2021/10/04 11:23:41;;;;;;;2.10;2.00;;;;;;;13.68;100.00;97039.75;5073058;28;20207;-70
2021/10/04 11:26:12;;;;;;;1.80;1.70;;;;;;;13.77;100.00;97027.78;5072988;28;20196;-70
2021/10/04 11:28:40;;;;;;;1.77;1.40;;;;;;;13.88;99.11;97023.47;5073190;28;20231;-69
2021/10/04 11:31:17;;;;;;;1.83;1.40;;;;;;;13.99;100.00;97020.72;5073004;28;20638;-70